createdAt,value
2019-06-20T00:00:44.812Z,64.67
2019-06-20T00:03:14.053Z,64.64
2019-06-20T00:05:43.353Z,64.69
2019-06-20T00:08:12.701Z,64.77
2019-06-20T00:10:41.903Z,64.87
2019-06-20T00:13:10.859Z,64.91
2019-06-20T00:15:40.154Z,64.96
2019-06-20T00:18:09.331Z,64.89
2019-06-20T00:20:38.273Z,64.85
2019-06-20T00:23:07.238Z,64.90
2019-06-20T00:25:36.110Z,64.80
2019-06-20T00:28:05.400Z,64.73
2019-06-20T00:30:34.298Z,64.76
2019-06-20T00:33:03.248Z,64.77
2019-06-20T00:35:32.342Z,64.63
2019-06-20T00:38:01.225Z,64.70
2019-06-20T00:40:30.162Z,64.60
2019-06-20T00:42:59.059Z,64.67
2019-06-20T00:45:28.023Z,64.60
2019-06-20T00:47:57.322Z,64.44
2019-06-20T00:50:26.860Z,64.41
2019-06-20T00:52:56.097Z,64.38
2019-06-20T00:55:25.370Z,64.23
2019-06-20T00:57:54.221Z,64.08
2019-06-20T01:00:23.764Z,63.95
2019-06-20T01:02:52.743Z,63.92
2019-06-20T01:05:21.698Z,63.88
2019-06-20T01:07:50.561Z,63.83
2019-06-20T01:10:19.699Z,63.76
2019-06-20T01:12:48.929Z,63.77
2019-06-20T01:15:18.081Z,63.75
2019-06-20T01:17:47.117Z,63.62
2019-06-20T01:20:16.848Z,63.60
2019-06-20T01:22:46.032Z,63.54
2019-06-20T01:25:15.012Z,63.49
2019-06-20T01:27:44.093Z,63.31
2019-06-20T01:30:13.414Z,63.05
2019-06-20T01:32:42.394Z,62.95
2019-06-20T01:35:11.459Z,62.97
2019-06-20T01:37:40.393Z,62.92
2019-06-20T01:40:09.960Z,62.73
2019-06-20T01:42:38.859Z,62.57
2019-06-20T01:45:09.439Z,62.58
2019-06-20T01:47:38.390Z,62.40
2019-06-20T01:50:07.613Z,62.46
2019-06-20T01:52:36.738Z,62.40
2019-06-20T01:55:06.161Z,62.40
2019-06-20T01:57:35.141Z,62.49
2019-06-20T02:00:05.232Z,62.53
2019-06-20T02:02:34.826Z,62.40
2019-06-20T02:05:04.200Z,62.30
2019-06-20T02:07:33.165Z,62.27
2019-06-20T02:10:02.070Z,62.26
2019-06-20T02:12:30.951Z,62.18
2019-06-20T02:15:00.169Z,62.05
2019-06-20T02:17:29.448Z,61.97
2019-06-20T02:19:58.416Z,61.95
2019-06-20T02:22:27.385Z,62.01
2019-06-20T02:24:56.920Z,62.03
2019-06-20T02:27:26.519Z,62.06
2019-06-20T02:29:55.385Z,62.10
2019-06-20T02:32:24.438Z,62.18
2019-06-20T02:34:53.323Z,62.24
2019-06-20T02:37:22.356Z,62.27
2019-06-20T02:39:51.413Z,62.47
2019-06-20T02:42:20.302Z,62.56
2019-06-20T02:44:49.298Z,62.62
2019-06-20T02:47:18.438Z,62.53
2019-06-20T02:49:47.466Z,62.49
2019-06-20T02:52:16.695Z,62.48
2019-06-20T02:54:45.582Z,62.55
2019-06-20T02:57:14.828Z,62.65
2019-06-20T02:59:44.322Z,62.61
2019-06-20T03:02:13.200Z,62.62
2019-06-20T03:04:45.493Z,62.69
2019-06-20T03:07:13.184Z,62.84
2019-06-20T03:09:42.163Z,62.92
2019-06-20T03:12:10.996Z,63.09
2019-06-20T03:14:45.419Z,63.23
2019-06-20T03:17:10.717Z,63.40
2019-06-20T03:19:39.931Z,63.60
2019-06-20T03:22:08.888Z,63.63
2019-06-20T03:24:38.130Z,63.56
2019-06-20T03:27:07.033Z,63.62
2019-06-20T03:29:35.927Z,63.67
2019-06-20T03:32:05.244Z,63.62
2019-06-20T03:34:34.185Z,63.60
2019-06-20T03:37:04.385Z,63.64
2019-06-20T03:39:33.253Z,63.64
2019-06-20T03:42:02.253Z,63.59
2019-06-20T03:44:31.525Z,63.70
2019-06-20T03:47:00.540Z,63.69
2019-06-20T03:49:29.738Z,63.82
2019-06-20T03:51:59.039Z,63.88
2019-06-20T03:54:28.367Z,64.01
2019-06-20T03:56:57.304Z,64.04
2019-06-20T03:59:26.202Z,64.01
2019-06-20T04:01:55.092Z,63.96
2019-06-20T04:04:24.378Z,63.86
2019-06-20T04:06:53.336Z,63.92
2019-06-20T04:09:22.622Z,63.97
2019-06-20T04:11:51.643Z,63.98
2019-06-20T04:14:20.628Z,64.02
2019-06-20T04:16:49.609Z,63.75
2019-06-20T04:19:18.525Z,63.84
2019-06-20T04:21:47.788Z,63.88
2019-06-20T04:24:16.712Z,63.88
2019-06-20T04:26:45.648Z,63.73
2019-06-20T04:29:14.545Z,63.64
2019-06-20T04:31:43.439Z,63.46
2019-06-20T04:34:12.323Z,63.46
2019-06-20T04:36:41.902Z,63.42
2019-06-20T04:39:19.391Z,63.43
2019-06-20T04:41:42.236Z,63.21
2019-06-20T04:44:11.451Z,63.23
2019-06-20T04:47:04.040Z,63.21
2019-06-20T04:49:32.861Z,63.24
2019-06-20T04:52:01.843Z,62.86
2019-06-20T04:54:30.843Z,62.59
2019-06-20T04:57:00.175Z,62.27
2019-06-20T04:59:29.134Z,62.14
2019-06-20T05:01:58.122Z,61.88
2019-06-20T05:04:26.993Z,61.47
2019-06-20T05:07:01.588Z,61.39
2019-06-20T05:09:30.549Z,61.31
2019-06-20T05:12:02.888Z,60.68
2019-06-20T05:14:32.131Z,60.03
2019-06-20T05:17:01.981Z,59.44
2019-06-20T05:19:30.888Z,59.47
2019-06-20T05:21:59.881Z,59.68
2019-06-20T05:24:28.779Z,59.68
2019-06-20T05:26:57.966Z,58.11
2019-06-20T05:29:26.983Z,56.88
2019-06-20T05:31:55.970Z,56.80
2019-06-20T05:34:24.863Z,57.10
2019-06-20T05:36:53.763Z,57.34
2019-06-20T05:39:22.669Z,57.56
2019-06-20T05:41:51.629Z,57.96
2019-06-20T05:44:20.881Z,58.14
2019-06-20T05:46:49.830Z,58.21
2019-06-20T05:49:19.494Z,58.15
2019-06-20T05:51:48.742Z,58.27
2019-06-20T05:54:18.315Z,58.15
2019-06-20T05:56:47.603Z,58.18
2019-06-20T05:59:16.577Z,58.65
2019-06-20T06:01:45.697Z,59.01
2019-06-20T06:04:14.580Z,58.82
2019-06-20T06:06:43.550Z,58.99
2019-06-20T06:09:12.437Z,59.22
2019-06-20T06:11:41.397Z,58.22
2019-06-20T06:14:10.654Z,58.22
2019-06-20T06:16:39.651Z,57.68
2019-06-20T06:19:08.849Z,57.08
2019-06-20T06:21:37.747Z,56.01
2019-06-20T06:24:07.168Z,54.68
2019-06-20T06:26:36.060Z,53.86
2019-06-20T06:29:05.133Z,53.38
2019-06-20T06:31:34.313Z,53.44
2019-06-20T06:34:03.259Z,53.44
2019-06-20T06:36:32.577Z,53.59
2019-06-20T06:39:01.488Z,54.15
2019-06-20T06:41:30.390Z,54.58
2019-06-20T06:43:59.361Z,54.99
2019-06-20T06:46:42.931Z,55.41
2019-06-20T06:48:59.035Z,55.74
2019-06-20T06:51:28.565Z,55.57
2019-06-20T06:53:58.211Z,55.62
2019-06-20T06:56:27.247Z,55.55
2019-06-20T06:58:56.225Z,55.21
2019-06-20T07:01:25.413Z,54.88
2019-06-20T07:03:54.397Z,54.84
2019-06-20T07:06:24.920Z,55.02
2019-06-20T07:08:54.125Z,55.50
2019-06-20T07:11:23.334Z,55.84
2019-06-20T07:13:52.719Z,55.35
2019-06-20T07:16:21.750Z,55.16
2019-06-20T07:18:50.948Z,55.21
2019-06-20T07:21:19.952Z,55.12
2019-06-20T07:23:48.909Z,54.91
2019-06-20T07:26:17.836Z,54.45
2019-06-20T07:28:46.852Z,53.80
2019-06-20T07:31:15.730Z,52.88
2019-06-20T07:33:44.652Z,52.46
2019-06-20T07:36:13.628Z,52.32
2019-06-20T07:38:42.529Z,51.55
2019-06-20T07:41:11.959Z,51.05
2019-06-20T07:43:40.933Z,50.58
2019-06-20T07:46:10.448Z,50.40
2019-06-20T07:48:39.369Z,50.24
2019-06-20T07:51:08.334Z,49.06
2019-06-20T07:53:37.543Z,48.64
2019-06-20T07:56:09.410Z,48.81
2019-06-20T07:58:37.190Z,48.69
2019-06-20T08:01:06.171Z,48.75
2019-06-20T08:03:35.415Z,49.35
2019-06-20T08:06:04.551Z,50.04
2019-06-20T08:08:33.481Z,49.78
2019-06-20T08:11:02.477Z,49.76
2019-06-20T08:13:31.417Z,49.01
2019-06-20T08:16:03.632Z,48.62
2019-06-20T08:18:31.085Z,48.44
2019-06-20T08:20:59.990Z,48.11
2019-06-20T08:23:29.171Z,47.57
2019-06-20T08:25:59.247Z,47.14
2019-06-20T08:28:28.882Z,46.89
2019-06-20T08:30:58.925Z,46.81
2019-06-20T08:33:28.339Z,47.18
2019-06-20T08:35:58.918Z,47.14
2019-06-20T08:38:28.539Z,48.07
2019-06-20T08:40:58.355Z,48.26
2019-06-20T08:43:27.578Z,47.87
2019-06-20T08:45:57.765Z,47.78
2019-06-20T08:48:26.872Z,47.88
2019-06-20T08:50:58.218Z,48.47
2019-06-20T08:53:27.937Z,48.14
2019-06-20T08:55:58.110Z,48.49
2019-06-20T08:58:27.569Z,48.53
2019-06-20T09:00:58.045Z,48.45
2019-06-20T09:03:27.256Z,47.58
2019-06-20T09:05:57.168Z,47.76
2019-06-20T09:08:27.219Z,47.62
2019-06-20T09:10:57.367Z,46.85
2019-06-20T09:13:26.573Z,46.47
2019-06-20T09:15:56.734Z,46.28
2019-06-20T09:18:26.148Z,44.46
2019-06-20T09:20:55.962Z,44.32
2019-06-20T09:23:25.161Z,43.67
2019-06-20T09:25:55.957Z,43.53
2019-06-20T09:28:24.986Z,43.79
2019-06-20T09:30:55.127Z,43.02
2019-06-20T09:33:24.347Z,43.76
2019-06-20T09:35:53.915Z,43.58
2019-06-20T09:38:24.646Z,43.34
2019-06-20T09:40:54.769Z,43.29
2019-06-20T09:43:27.507Z,43.20
2019-06-20T09:45:54.558Z,43.04
2019-06-20T09:48:23.381Z,42.16
2019-06-20T09:50:53.059Z,41.68
2019-06-20T09:53:23.191Z,41.05
2019-06-20T09:55:53.638Z,41.58
2019-06-20T09:58:22.819Z,41.78
2019-06-20T10:00:52.865Z,42.08
2019-06-20T10:03:21.796Z,42.13
2019-06-20T10:05:50.814Z,41.58
2019-06-20T10:08:20.392Z,40.94
2019-06-20T10:10:50.678Z,40.76
2019-06-20T10:13:20.471Z,41.32
2019-06-20T10:15:49.480Z,41.50
2019-06-20T10:18:18.420Z,41.99
2019-06-20T10:20:47.313Z,42.23
2019-06-20T10:23:16.408Z,43.05
2019-06-20T10:25:47.462Z,43.33
2019-06-20T10:28:16.489Z,43.13
2019-06-20T10:30:46.513Z,42.67
2019-06-20T10:33:15.437Z,42.37
2019-06-20T10:35:45.847Z,42.25
2019-06-20T10:38:15.019Z,42.42
2019-06-20T10:40:46.050Z,42.49
2019-06-20T10:43:14.743Z,41.35
2019-06-20T10:45:45.753Z,41.34
2019-06-20T10:48:15.172Z,41.21
2019-06-20T10:50:45.576Z,40.88
2019-06-20T10:53:14.924Z,41.54
2019-06-20T10:55:44.885Z,41.73
2019-06-20T10:58:13.778Z,42.18
2019-06-20T11:00:43.390Z,41.70
2019-06-20T11:03:13.470Z,41.60
2019-06-20T11:05:43.803Z,41.23
2019-06-20T11:08:13.345Z,40.77
2019-06-20T11:10:43.539Z,41.48
2019-06-20T11:13:12.878Z,41.14
2019-06-20T11:15:42.249Z,41.51
2019-06-20T11:18:11.705Z,42.12
2019-06-20T11:20:41.023Z,41.51
2019-06-20T11:23:11.270Z,40.92
2019-06-20T11:25:41.854Z,41.06
2019-06-20T11:28:10.881Z,40.57
2019-06-20T11:30:52.879Z,40.12
2019-06-20T11:33:11.358Z,39.65
2019-06-20T11:35:41.799Z,39.95
2019-06-20T11:38:11.134Z,40.58
2019-06-20T11:40:41.558Z,40.14
2019-06-20T11:43:10.684Z,38.80
2019-06-20T11:45:40.915Z,38.85
2019-06-20T11:48:09.886Z,38.12
2019-06-20T11:50:40.000Z,38.52
2019-06-20T11:53:09.040Z,38.29
2019-06-20T11:55:38.323Z,39.00
2019-06-20T11:58:07.257Z,38.76
2019-06-20T12:00:36.223Z,38.21
2019-06-20T12:03:05.471Z,38.34
2019-06-20T12:05:35.992Z,38.35
2019-06-20T12:08:05.326Z,38.78
2019-06-20T12:10:34.202Z,39.07
2019-06-20T12:13:03.071Z,39.80
2019-06-20T12:15:31.982Z,39.16
2019-06-20T12:18:00.839Z,38.76
2019-06-20T12:20:30.152Z,39.22
2019-06-20T12:22:59.068Z,39.49
2019-06-20T12:25:28.335Z,39.23
2019-06-20T12:27:57.665Z,38.98
2019-06-20T12:30:26.778Z,39.07
2019-06-20T12:32:55.666Z,38.88
2019-06-20T12:35:24.639Z,38.55
2019-06-20T12:37:53.666Z,38.20
2019-06-20T12:40:22.904Z,37.96
2019-06-20T12:42:52.067Z,38.34
2019-06-20T12:45:21.527Z,38.63
2019-06-20T12:47:50.433Z,38.02
2019-06-20T12:50:21.200Z,38.04
2019-06-20T12:52:50.126Z,38.27
2019-06-20T12:55:19.056Z,38.67
2019-06-20T12:57:48.499Z,39.09
2019-06-20T13:00:18.524Z,39.31
2019-06-20T13:02:47.731Z,40.19
2019-06-20T13:05:17.193Z,39.94
2019-06-20T13:07:46.611Z,39.37
2019-06-20T13:10:16.304Z,40.14
2019-06-20T13:12:46.401Z,39.78
2019-06-20T13:15:15.507Z,39.88
2019-06-20T13:17:45.106Z,39.42
2019-06-20T13:20:14.793Z,39.20
2019-06-20T13:22:44.778Z,39.56
2019-06-20T13:25:14.836Z,39.73
2019-06-20T13:27:43.856Z,40.63
2019-06-20T13:30:14.452Z,40.65
2019-06-20T13:32:44.989Z,40.51
2019-06-20T13:35:14.734Z,41.43
2019-06-20T13:37:45.480Z,41.58
2019-06-20T13:40:16.106Z,41.56
2019-06-20T13:42:46.091Z,42.17
2019-06-20T13:45:23.075Z,42.62
2019-06-20T13:47:52.043Z,44.09
2019-06-20T13:50:21.677Z,45.85
2019-06-20T13:52:51.316Z,45.57
2019-06-20T13:55:20.504Z,45.48
2019-06-20T13:57:49.865Z,44.87
2019-06-20T14:00:19.628Z,44.59
2019-06-20T14:02:49.098Z,44.93
2019-06-20T14:05:19.542Z,44.65
2019-06-20T14:07:51.904Z,44.88
2019-06-20T14:10:19.679Z,45.50
2019-06-20T14:12:49.178Z,46.36
2019-06-20T14:15:19.442Z,47.00
2019-06-20T14:17:49.709Z,47.47
2019-06-20T14:20:19.486Z,48.35
2019-06-20T14:22:49.439Z,49.37
2019-06-20T14:25:19.324Z,50.94
2019-06-20T14:27:49.154Z,51.23
2019-06-20T14:30:18.721Z,51.64
2019-06-20T14:32:49.224Z,52.15
2019-06-20T14:35:18.984Z,51.56
2019-06-20T14:37:49.461Z,51.55
2019-06-20T14:40:19.155Z,52.17
2019-06-20T14:42:48.073Z,51.94
2019-06-20T14:45:18.765Z,51.62
2019-06-20T14:47:47.700Z,50.78
2019-06-20T14:50:16.674Z,51.17
2019-06-20T14:52:47.700Z,51.02
2019-06-20T14:55:16.925Z,50.54
2019-06-20T14:57:47.003Z,51.00
2019-06-20T15:00:16.777Z,50.36
2019-06-20T15:02:47.220Z,51.22
2019-06-20T15:05:16.876Z,50.28
2019-06-20T15:07:47.353Z,50.02
2019-06-20T15:10:17.006Z,51.33
2019-06-20T15:12:47.743Z,50.97
2019-06-20T15:15:16.769Z,50.35
2019-06-20T15:17:47.545Z,50.82
2019-06-20T15:20:16.827Z,50.09
2019-06-20T15:22:47.399Z,50.78
2019-06-20T15:25:16.466Z,50.60
2019-06-20T15:27:47.286Z,50.23
2019-06-20T15:30:16.157Z,50.74
2019-06-20T15:33:01.137Z,51.32
2019-06-20T15:35:16.233Z,50.45
2019-06-20T15:37:46.706Z,50.55
2019-06-20T15:40:15.915Z,50.91
2019-06-20T15:42:45.151Z,50.70
2019-06-20T15:45:15.709Z,50.84
2019-06-20T15:47:44.700Z,50.76
2019-06-20T15:50:13.884Z,50.42
2019-06-20T15:52:42.812Z,50.87
2019-06-20T15:55:13.038Z,50.28
2019-06-20T15:57:41.948Z,50.63
2019-06-20T16:00:11.405Z,50.35
2019-06-20T16:02:40.364Z,51.30
2019-06-20T16:05:09.520Z,52.36
2019-06-20T16:07:38.475Z,50.12
2019-06-20T16:10:07.484Z,50.10
2019-06-20T16:12:36.653Z,49.84
2019-06-20T16:15:06.226Z,50.52
2019-06-20T16:17:35.544Z,50.14
2019-06-20T16:20:04.788Z,50.20
2019-06-20T16:22:34.278Z,49.81
2019-06-20T16:25:03.245Z,49.13
2019-06-20T16:27:32.564Z,49.32
2019-06-20T16:30:01.443Z,49.46
2019-06-20T16:32:30.443Z,49.88
2019-06-20T16:34:59.325Z,48.90
2019-06-20T16:37:28.296Z,49.35
2019-06-20T16:39:57.184Z,49.07
2019-06-20T16:42:26.096Z,49.13
2019-06-20T16:44:55.041Z,48.64
2019-06-20T16:47:24.052Z,48.28
2019-06-20T16:49:52.935Z,48.07
2019-06-20T16:52:21.972Z,48.68
2019-06-20T16:54:51.379Z,48.71
2019-06-20T16:57:20.344Z,48.25
2019-06-20T16:59:50.042Z,48.09
2019-06-20T17:02:19.006Z,47.87
2019-06-20T17:04:47.891Z,47.96
2019-06-20T17:07:16.829Z,47.78
2019-06-20T17:09:45.816Z,47.77
2019-06-20T17:12:14.706Z,47.93
2019-06-20T17:14:43.610Z,48.41
2019-06-20T17:17:12.613Z,48.76
2019-06-20T17:19:42.299Z,48.53
2019-06-20T17:22:11.579Z,48.18
2019-06-20T17:24:40.866Z,48.35
2019-06-20T17:27:09.853Z,48.36
2019-06-20T17:29:39.147Z,48.07
2019-06-20T17:32:08.168Z,47.52
2019-06-20T17:34:37.056Z,47.18
2019-06-20T17:37:05.943Z,47.18
2019-06-20T17:39:35.203Z,47.29
2019-06-20T17:42:04.143Z,46.83
2019-06-20T17:44:33.033Z,46.57
2019-06-20T17:47:02.416Z,47.12
2019-06-20T17:49:31.343Z,47.76
2019-06-20T17:52:00.343Z,47.59
2019-06-20T17:54:29.636Z,47.97
2019-06-20T17:56:58.882Z,48.38
2019-06-20T17:59:27.839Z,48.28
2019-06-20T18:01:56.714Z,47.60
2019-06-20T18:04:26.860Z,47.25
2019-06-20T18:06:55.939Z,46.69
2019-06-20T18:09:24.907Z,46.75
2019-06-20T18:11:53.879Z,46.78
2019-06-20T18:14:23.148Z,47.01
2019-06-20T18:16:52.030Z,47.01
2019-06-20T18:19:20.937Z,47.36
2019-06-20T18:21:49.943Z,47.55
2019-06-20T18:24:18.937Z,47.54
2019-06-20T18:26:47.787Z,47.49
2019-06-20T18:29:16.769Z,47.06
2019-06-20T18:31:45.713Z,47.10
2019-06-20T18:34:29.184Z,47.12
2019-06-20T18:36:45.377Z,47.07
2019-06-20T18:39:14.619Z,46.50
2019-06-20T18:41:47.316Z,46.77
2019-06-20T18:44:14.520Z,46.95
2019-06-20T18:46:43.446Z,48.28
2019-06-20T18:49:12.359Z,49.12
2019-06-20T18:51:41.333Z,49.46
2019-06-20T18:54:10.323Z,50.16
2019-06-20T18:56:39.236Z,50.79
2019-06-20T18:59:08.339Z,50.79
2019-06-20T19:01:37.330Z,51.19
2019-06-20T19:04:06.370Z,51.19
2019-06-20T19:06:36.542Z,51.02
2019-06-20T19:09:07.906Z,51.07
2019-06-20T19:11:37.195Z,50.87
2019-06-20T19:14:06.507Z,50.87
2019-06-20T19:16:35.573Z,50.96
2019-06-20T19:19:05.248Z,51.08
2019-06-20T19:21:34.496Z,51.20
2019-06-20T19:24:03.509Z,51.29
2019-06-20T19:26:32.491Z,51.30
2019-06-20T19:29:01.401Z,51.04
2019-06-20T19:31:30.544Z,50.96
2019-06-20T19:33:59.526Z,51.22
2019-06-20T19:36:28.425Z,51.41
2019-06-20T19:38:57.411Z,51.43
2019-06-20T19:41:26.611Z,51.61
2019-06-20T19:43:55.819Z,51.64
2019-06-20T19:46:24.728Z,51.66
2019-06-20T19:48:53.657Z,51.81
2019-06-20T19:51:22.637Z,52.00
2019-06-20T19:53:52.921Z,52.20
2019-06-20T19:56:22.110Z,52.45
2019-06-20T19:58:51.526Z,52.53
2019-06-20T20:01:20.482Z,52.55
2019-06-20T20:03:49.335Z,52.60
2019-06-20T20:06:18.215Z,52.63
2019-06-20T20:08:47.083Z,52.76
2019-06-20T20:11:16.119Z,52.73
2019-06-20T20:13:45.067Z,52.62
2019-06-20T20:16:14.004Z,52.58
2019-06-20T20:18:43.171Z,52.60
2019-06-20T20:21:12.533Z,52.58
2019-06-20T20:23:41.512Z,52.62
2019-06-20T20:26:10.570Z,52.51
2019-06-20T20:28:39.853Z,52.78
2019-06-20T20:31:09.150Z,52.79
2019-06-20T20:33:38.043Z,53.00
2019-06-20T20:36:06.953Z,52.75
2019-06-20T20:38:35.938Z,52.69
2019-06-20T20:41:04.855Z,52.32
2019-06-20T20:43:33.818Z,52.35
2019-06-20T20:46:02.639Z,52.04
2019-06-20T20:48:32.314Z,52.04
2019-06-20T20:51:01.547Z,51.92
2019-06-20T20:53:30.660Z,51.81
2019-06-20T20:56:02.382Z,51.94
2019-06-20T20:58:30.488Z,51.77
2019-06-20T21:01:12.935Z,51.92
2019-06-20T21:03:41.944Z,51.85
2019-06-20T21:06:11.124Z,51.95
2019-06-20T21:08:40.070Z,52.03
2019-06-20T21:11:09.011Z,51.97
2019-06-20T21:13:37.876Z,52.10
2019-06-20T21:16:06.828Z,52.34
2019-06-20T21:18:36.121Z,52.28
2019-06-20T21:21:05.030Z,52.44
2019-06-20T21:23:33.989Z,52.59
2019-06-20T21:26:03.039Z,52.78
2019-06-20T21:28:31.997Z,52.97
2019-06-20T21:31:01.006Z,53.12
2019-06-20T21:33:29.952Z,53.25
2019-06-20T21:36:08.359Z,53.55
2019-06-20T21:38:29.566Z,53.76
2019-06-20T21:40:58.523Z,54.10
2019-06-20T21:43:27.771Z,54.17
2019-06-20T21:45:57.458Z,54.43
2019-06-20T21:48:26.429Z,54.50
2019-06-20T21:50:55.711Z,54.67
2019-06-20T21:56:05.263Z,54.87
2019-06-20T21:58:34.448Z,55.11
2019-06-20T22:01:04.428Z,55.15
2019-06-20T22:03:33.769Z,55.15
2019-06-20T22:06:02.976Z,55.37
2019-06-20T22:08:31.926Z,55.55
2019-06-20T22:11:01.366Z,55.74
2019-06-20T22:13:30.410Z,55.92
2019-06-20T22:15:59.589Z,56.12
2019-06-20T22:18:28.834Z,56.44
2019-06-20T22:22:04.086Z,56.69
2019-06-20T22:24:32.921Z,56.91
2019-06-20T22:27:01.929Z,57.22
2019-06-20T22:29:30.774Z,57.54
2019-06-20T22:31:59.969Z,57.76
2019-06-20T22:34:28.904Z,57.95
2019-06-20T22:36:57.681Z,58.13
2019-06-20T22:39:26.923Z,58.34
2019-06-20T22:41:55.808Z,58.56
2019-06-20T22:44:25.134Z,58.67
2019-06-20T22:46:54.355Z,59.01
2019-06-20T22:49:23.516Z,59.22
2019-06-20T22:51:52.459Z,59.50
2019-06-20T22:54:21.811Z,59.67
2019-06-20T22:56:50.593Z,59.76
2019-06-20T22:59:19.450Z,60.07
2019-06-20T23:01:48.895Z,60.25
2019-06-20T23:21:27.929Z,61.14
2019-06-20T23:23:56.853Z,61.03
2019-06-20T23:26:26.106Z,61.01
2019-06-20T23:29:12.754Z,60.96
2019-06-20T23:31:41.912Z,61.00
2019-06-20T23:34:10.983Z,61.01
2019-06-20T23:36:40.396Z,60.98
2019-06-20T23:39:09.352Z,61.01
2019-06-20T23:41:38.790Z,60.97
2019-06-20T23:44:07.985Z,60.96
2019-06-20T23:46:37.195Z,60.94
2019-06-20T23:49:06.202Z,60.96
2019-06-20T23:51:37.352Z,61.01
2019-06-20T23:54:06.313Z,60.96
2019-06-20T23:56:35.396Z,60.85
2019-06-20T23:59:04.372Z,60.86
